Kiester, Minnesota
Current Conditions -  °F | °C
As of 7:13 PM on Sunday 23 Nov 2014 (Local Time) from KAEL Reporting Station
Drizzle Drizzle  
Wind Chill: 31°   Ceiling: 1500
Heat Index: 39°   Visibility: 10mi
Dew Point: 37°   Wind: 14mph
Humidity: 93%   Direction: 310°NW
Pressure: 29.37"   Gusts: 21mph
Location:  43.54°N, 93.71°W
Report Text: KAEL 240113Z AUTO 31012G18KT 10SM -DZ OVC015 04/03 A2937 RMK AO2
Loading
Personal Weather Stations






























Interactive Weather Map New forecast layout! Learn more

10-Day Weather Forecast

Advertisements
Track Severe Weather on mobile